Time;durP1;ratioP1;P1;durP2;ratioP2;P2;SDS_P1;SDS_P2;PMS_P1;PMS_P2;Temp;Humidity;BMP_temperature;BMP_pressure;BME280_temperature;BME280_humidity;BME280_pressure;Samples;Min_cycle;Max_cycle;Signal;HPM_P1;HPM_P2
2024/01/16 00:00:46;;;;;;;15.50;4.65;;;;;;;1.50;100.00;101065.41;5269117;28;20493;-73
2024/01/16 00:03:16;;;;;;;23.25;5.75;;;;;;;1.57;100.00;101070.31;5272036;28;20568;-73
2024/01/16 00:05:47;;;;;;;15.85;5.88;;;;;;;1.55;100.00;101068.59;5276099;28;20024;-73
2024/01/16 00:08:18;;;;;;;18.05;5.30;;;;;;;1.51;100.00;101063.63;5273320;28;20031;-73
2024/01/16 00:10:48;;;;;;;15.75;5.15;;;;;;;1.57;100.00;101076.44;5274715;28;20016;-73
2024/01/16 00:13:18;;;;;;;14.55;5.03;;;;;;;1.56;100.00;101069.47;5273062;28;20024;-73
2024/01/16 00:15:49;;;;;;;17.92;5.18;;;;;;;1.60;100.00;101073.56;5277159;27;20027;-73
2024/01/16 00:18:20;;;;;;;17.48;5.72;;;;;;;1.61;100.00;101066.47;5272239;28;20028;-73
2024/01/16 00:20:50;;;;;;;17.38;5.07;;;;;;;1.55;100.00;101071.22;5277612;28;20115;-73
2024/01/16 00:23:20;;;;;;;19.05;4.90;;;;;;;1.60;100.00;101070.06;5269361;28;20489;-73
2024/01/16 00:25:51;;;;;;;17.02;5.00;;;;;;;1.63;100.00;101069.88;5274979;28;20024;-73
2024/01/16 00:28:21;;;;;;;13.85;5.93;;;;;;;1.63;100.00;101065.44;5273433;28;20119;-73
2024/01/16 00:30:52;;;;;;;14.95;5.03;;;;;;;1.62;100.00;101076.13;5270636;28;20032;-73
2024/01/16 00:33:22;;;;;;;18.33;5.10;;;;;;;1.54;100.00;101066.91;5268875;28;20077;-73
2024/01/16 00:35:53;;;;;;;15.98;4.90;;;;;;;1.57;100.00;101073.78;5274694;28;20024;-73
2024/01/16 00:38:23;;;;;;;23.42;4.70;;;;;;;1.58;100.00;101075.47;5273227;28;20031;-73
2024/01/16 00:40:54;;;;;;;16.92;5.85;;;;;;;1.59;100.00;101077.16;5274961;28;20036;-73
2024/01/16 00:43:25;;;;;;;25.65;5.72;;;;;;;1.54;100.00;101081.91;5275675;28;20020;-73
2024/01/16 00:45:55;;;;;;;24.02;4.88;;;;;;;1.53;100.00;101080.22;5275245;28;20485;-73
2024/01/16 00:48:25;;;;;;;16.08;4.82;;;;;;;1.58;100.00;101080.75;5268860;28;20538;-73
2024/01/16 00:50:56;;;;;;;14.68;5.00;;;;;;;1.62;100.00;101078.78;5273946;28;20368;-73
2024/01/16 00:53:27;;;;;;;19.25;4.95;;;;;;;1.58;100.00;101072.84;5270446;28;20107;-73
2024/01/16 00:55:57;;;;;;;15.38;4.35;;;;;;;1.63;100.00;101075.16;5274148;28;20027;-73
2024/01/16 00:58:28;;;;;;;15.98;4.40;;;;;;;1.54;100.00;101076.63;5271386;28;20030;-73
2024/01/16 01:00:58;;;;;;;14.60;5.18;;;;;;;1.54;100.00;101079.28;5273591;28;20024;-73
2024/01/16 01:03:29;;;;;;;22.10;5.30;;;;;;;1.53;100.00;101072.28;5267662;28;20111;-72
2024/01/16 01:06:00;;;;;;;20.48;4.82;;;;;;;1.51;100.00;101077.69;5276006;28;20027;-73
2024/01/16 01:08:31;;;;;;;17.85;4.40;;;;;;;1.53;100.00;101072.28;5274344;28;20162;-73
2024/01/16 01:11:02;;;;;;;20.45;4.72;;;;;;;1.53;100.00;101077.59;5275287;28;20310;-73
2024/01/16 01:13:33;;;;;;;13.00;4.20;;;;;;;1.54;100.00;101088.03;5267491;28;20061;-73
2024/01/16 01:16:04;;;;;;;20.80;4.78;;;;;;;1.56;100.00;101095.91;5273491;28;20148;-73
2024/01/16 01:18:34;;;;;;;16.92;4.47;;;;;;;1.50;100.00;101102.41;5273547;28;20031;-73
2024/01/16 01:21:05;;;;;;;16.60;4.38;;;;;;;1.48;100.00;101098.19;5272148;28;20030;-73
2024/01/16 01:23:35;;;;;;;15.40;4.50;;;;;;;1.48;100.00;101096.41;5271428;28;20024;-73
2024/01/16 01:26:06;;;;;;;10.90;4.05;;;;;;;1.49;100.00;101098.09;5268833;28;20449;-73
2024/01/16 01:28:39;;;;;;;27.30;4.47;;;;;;;1.49;100.00;101105.16;5268069;28;20038;-73
2024/01/16 01:31:11;;;;;;;12.93;4.20;;;;;;;1.43;100.00;101093.22;5272495;28;20031;-73
2024/01/16 01:33:42;;;;;;;9.35;3.60;;;;;;;1.43;100.00;101100.28;5272531;28;20103;-73
2024/01/16 01:36:12;;;;;;;17.40;4.10;;;;;;;1.36;100.00;101088.44;5270080;28;20047;-73
2024/01/16 01:38:43;;;;;;;20.50;4.32;;;;;;;1.33;100.00;101088.63;5275158;28;20389;-73
2024/01/16 01:41:13;;;;;;;25.50;4.28;;;;;;;1.26;100.00;101093.50;5271435;28;20020;-73
2024/01/16 01:43:44;;;;;;;15.80;4.13;;;;;;;1.26;100.00;101096.97;5276346;28;20058;-72
2024/01/16 01:46:19;;;;;;;15.40;4.03;;;;;;;1.28;100.00;101105.63;5271465;28;20016;-73
2024/01/16 01:48:49;;;;;;;12.10;3.95;;;;;;;1.24;100.00;101101.50;5275123;28;20023;-73
2024/01/16 01:51:20;;;;;;;12.13;4.05;;;;;;;1.20;100.00;101100.00;5272801;28;20031;-73
2024/01/16 01:53:52;;;;;;;29.67;4.68;;;;;;;1.14;100.00;101096.91;5270533;28;20027;-73
2024/01/16 01:56:23;;;;;;;17.30;3.80;;;;;;;1.14;100.00;101092.47;5271285;28;20468;-73
2024/01/16 01:58:56;;;;;;;13.95;3.88;;;;;;;1.04;100.00;101094.84;5273194;28;20050;-73
2024/01/16 02:01:31;;;;;;;13.88;3.92;;;;;;;1.09;100.00;101097.22;5272378;28;20033;-73
2024/01/16 02:04:02;;;;;;;17.98;3.40;;;;;;;1.03;100.00;101093.16;5270899;28;20077;-73
2024/01/16 02:06:33;;;;;;;14.10;4.03;;;;;;;0.98;100.00;101089.13;5268664;28;20036;-73
2024/01/16 02:09:06;;;;;;;13.05;3.78;;;;;;;1.02;100.00;101090.63;5273563;28;20489;-73
2024/01/16 02:11:37;;;;;;;12.35;3.80;;;;;;;1.01;100.00;101105.66;5267403;28;20202;-72
2024/01/16 02:14:08;;;;;;;16.23;3.80;;;;;;;0.96;100.00;101097.16;5270364;28;20027;-72
2024/01/16 02:16:41;;;;;;;17.75;4.30;;;;;;;0.94;100.00;101106.97;5271293;28;20016;-72
2024/01/16 02:19:11;;;;;;;12.10;3.25;;;;;;;0.91;100.00;101108.97;5275064;28;20028;-72
2024/01/16 02:21:49;;;;;;;11.93;3.63;;;;;;;0.97;100.00;101093.56;5274603;28;20384;-72
2024/01/16 02:24:19;;;;;;;20.85;5.13;;;;;;;0.97;100.00;101090.09;5270547;28;20031;-72
2024/01/16 02:26:50;;;;;;;15.52;3.92;;;;;;;0.93;100.00;101109.72;5276839;28;20016;-72
2024/01/16 02:29:21;;;;;;;15.05;3.90;;;;;;;0.90;100.00;101104.63;5269530;28;20036;-72
2024/01/16 02:31:51;;;;;;;14.68;4.28;;;;;;;0.83;100.00;101098.88;5275554;28;20023;-72
2024/01/16 02:34:23;;;;;;;15.95;4.60;;;;;;;0.89;100.00;101097.63;5271071;28;20035;-72
2024/01/16 02:36:53;;;;;;;10.88;3.45;;;;;;;0.80;100.00;101100.88;5277357;28;20016;-72
2024/01/16 02:39:25;;;;;;;13.18;4.13;;;;;;;0.75;100.00;101088.81;5273018;28;20024;-72
2024/01/16 02:41:55;;;;;;;12.10;3.42;;;;;;;0.79;100.00;101097.38;5270593;28;20102;-72
2024/01/16 02:44:25;;;;;;;14.40;3.65;;;;;;;0.73;100.00;101095.97;5270165;28;20103;-72
2024/01/16 02:46:56;;;;;;;11.13;3.97;;;;;;;0.77;100.00;101097.47;5273601;28;20161;-72
2024/01/16 02:49:26;;;;;;;23.48;3.83;;;;;;;0.77;100.00;101092.19;5270457;28;20020;-72
2024/01/16 02:51:57;;;;;;;23.40;3.80;;;;;;;0.76;100.00;101087.03;5273585;28;20030;-72
2024/01/16 02:54:28;;;;;;;15.70;3.47;;;;;;;0.66;100.00;101086.75;5269839;28;20024;-72
2024/01/16 02:56:59;;;;;;;16.30;3.85;;;;;;;0.68;100.00;101098.06;5271266;28;20488;-72
2024/01/16 02:59:30;;;;;;;11.77;3.25;;;;;;;0.65;100.00;101093.00;5272476;28;20076;-72
2024/01/16 03:02:01;;;;;;;10.57;3.45;;;;;;;0.58;100.00;101099.59;5275438;28;20074;-72
2024/01/16 03:04:31;;;;;;;10.57;3.38;;;;;;;0.56;100.00;101095.34;5270013;28;20035;-72
2024/01/16 03:07:02;;;;;;;14.73;3.80;;;;;;;0.58;100.00;101088.19;5272888;28;20024;-72
2024/01/16 03:09:33;;;;;;;17.38;4.35;;;;;;;0.52;100.00;101092.06;5272409;28;20085;-72
2024/01/16 03:12:08;;;;;;;;;;;;;;;0.51;100.00;101095.66;5271676;28;20020;-72
2024/01/16 03:14:39;;;;;;;20.38;4.00;;;;;;;0.51;100.00;101093.84;5269941;28;20385;-72
2024/01/16 03:17:09;;;;;;;13.80;3.70;;;;;;;0.49;100.00;101092.22;5272066;28;20077;-72
2024/01/16 03:19:40;;;;;;;14.43;3.60;;;;;;;0.45;100.00;101082.81;5268558;28;21207;-72
2024/01/16 03:22:11;;;;;;;15.90;3.95;;;;;;;0.41;100.00;101087.44;5271921;28;20064;-72
2024/01/16 03:24:42;;;;;;;12.07;3.75;;;;;;;0.37;100.00;101083.28;5270020;28;20031;-72
2024/01/16 03:27:18;;;;;;;17.77;3.72;;;;;;;0.36;100.00;101086.03;5266720;28;20032;-72
2024/01/16 03:29:53;;;;;;;18.70;5.13;;;;;;;0.33;100.00;101084.41;5268399;28;20028;-72
2024/01/16 03:32:23;;;;;;;16.55;4.05;;;;;;;0.26;100.00;101080.47;5269910;28;20019;-72
2024/01/16 03:34:57;;;;;;;11.00;3.60;;;;;;;0.23;100.00;101078.84;5273963;28;20062;-72
2024/01/16 03:37:27;;;;;;;14.25;4.38;;;;;;;0.24;100.00;101077.91;5269949;28;20489;-72
2024/01/16 03:39:58;;;;;;;18.02;4.25;;;;;;;0.22;100.00;101071.88;5274203;28;20072;-72
2024/01/16 03:42:29;;;;;;;15.05;4.07;;;;;;;0.28;100.00;101069.81;5271090;28;20465;-71
2024/01/16 03:44:59;;;;;;;9.73;4.13;;;;;;;0.23;100.00;101078.84;5273473;28;20362;-72
2024/01/16 03:47:30;;;;;;;17.90;3.65;;;;;;;0.23;100.00;101073.59;5272584;28;20024;-72
2024/01/16 03:50:00;;;;;;;10.85;3.30;;;;;;;0.22;100.00;101063.97;5274181;28;20020;-72
2024/01/16 03:52:31;;;;;;;20.38;5.38;;;;;;;0.20;100.00;101063.25;5268587;28;20027;-71
2024/01/16 03:55:01;;;;;;;11.77;3.72;;;;;;;0.18;100.00;101066.91;5269731;28;20036;-71
2024/01/16 03:57:32;;;;;;;10.27;4.00;;;;;;;0.15;100.00;101067.06;5271084;28;20016;-72
2024/01/16 04:00:05;;;;;;;13.23;3.58;;;;;;;0.14;100.00;101062.75;5274923;28;20030;-71
2024/01/16 04:02:37;;;;;;;14.55;3.95;;;;;;;0.18;100.00;101057.19;5269745;28;20424;-71
2024/01/16 04:05:07;;;;;;;13.35;3.63;;;;;;;0.14;100.00;101052.19;5270844;27;20046;-71
2024/01/16 04:07:38;;;;;;;19.05;3.60;;;;;;;0.13;100.00;101055.78;5271410;28;20024;-71
2024/01/16 04:10:08;;;;;;;14.68;3.88;;;;;;;0.17;100.00;101055.50;5273021;28;20035;-72
2024/01/16 04:12:39;;;;;;;13.30;3.42;;;;;;;0.16;100.00;101047.69;5272023;28;20060;-71
2024/01/16 04:15:10;;;;;;;18.90;3.75;;;;;;;0.16;100.00;101051.16;5270773;28;20022;-71
2024/01/16 04:17:40;;;;;;;11.13;3.45;;;;;;;0.16;100.00;101050.31;5274050;28;20385;-71
2024/01/16 04:20:11;;;;;;;13.50;4.10;;;;;;;0.11;100.00;101042.69;5269686;28;20157;-71
2024/01/16 04:22:41;;;;;;;22.23;5.18;;;;;;;0.14;100.00;101031.09;5273103;28;20032;-71
2024/01/16 04:25:12;;;;;;;10.18;3.97;;;;;;;0.16;100.00;101032.69;5270190;28;20028;-71
2024/01/16 04:27:42;;;;;;;15.15;4.03;;;;;;;0.18;100.00;101037.88;5271424;28;20073;-71
2024/01/16 04:30:13;;;;;;;15.90;3.95;;;;;;;0.17;100.00;101038.81;5271331;28;20380;-71
2024/01/16 04:32:43;;;;;;;17.77;5.25;;;;;;;0.16;100.00;101043.25;5270176;28;20040;-71
2024/01/16 04:35:14;;;;;;;14.93;4.03;;;;;;;0.16;100.00;101035.34;5270999;28;20494;-71
2024/01/16 04:37:45;;;;;;;12.88;4.43;;;;;;;0.13;100.00;101034.66;5271589;28;20614;-71
2024/01/16 04:40:15;;;;;;;18.67;4.70;;;;;;;0.10;100.00;101035.72;5271764;28;20111;-71
2024/01/16 04:42:46;;;;;;;21.20;6.47;;;;;;;0.07;100.00;101035.91;5271100;28;20489;-71
2024/01/16 04:45:16;;;;;;;13.63;4.70;;;;;;;0.03;100.00;101026.47;5271885;28;20028;-71
2024/01/16 04:47:47;;;;;;;14.10;5.30;;;;;;;0.00;100.00;101026.69;5271740;28;20016;-71
2024/01/16 04:50:18;;;;;;;23.95;5.45;;;;;;;-0.10;100.00;101015.84;5269148;28;20028;-71
2024/01/16 04:52:49;;;;;;;22.10;5.93;;;;;;;-0.11;100.00;101016.75;5269498;28;20042;-71
2024/01/16 04:55:19;;;;;;;17.80;7.05;;;;;;;-0.17;100.00;101011.88;5269293;28;20020;-71
2024/01/16 04:57:50;;;;;;;18.65;6.65;;;;;;;-0.18;100.00;101011.97;5272883;28;20055;-71
2024/01/16 05:00:20;;;;;;;21.17;6.95;;;;;;;-0.21;100.00;101005.06;5270975;28;20051;-71
2024/01/16 05:02:51;;;;;;;17.50;6.25;;;;;;;-0.24;100.00;101015.00;5272652;28;20027;-71
2024/01/16 05:05:21;;;;;;;22.63;6.43;;;;;;;-0.29;100.00;101015.25;5270678;28;20027;-71
2024/01/16 05:07:52;;;;;;;20.58;6.50;;;;;;;-0.29;100.00;100999.44;5272325;28;20179;-71
2024/01/16 05:10:22;;;;;;;22.85;6.25;;;;;;;-0.30;100.00;101008.31;5268546;28;20020;-71
2024/01/16 05:12:53;;;;;;;21.88;6.60;;;;;;;-0.31;100.00;101007.44;5271366;28;20028;-71
2024/01/16 05:15:23;;;;;;;21.10;6.40;;;;;;;-0.37;100.00;101010.44;5269331;28;20020;-71
2024/01/16 05:17:54;;;;;;;14.77;6.32;;;;;;;-0.40;100.00;101015.91;5267913;28;20403;-71
2024/01/16 05:20:24;;;;;;;20.92;5.93;;;;;;;-0.41;100.00;101011.56;5269219;28;20593;-71
2024/01/16 05:22:55;;;;;;;18.45;5.40;;;;;;;-0.43;100.00;101012.59;5272321;28;20051;-71
2024/01/16 05:25:25;;;;;;;17.77;6.30;;;;;;;-0.45;100.00;101003.91;5269021;28;20026;-71
2024/01/16 05:27:56;;;;;;;14.73;5.25;;;;;;;-0.49;100.00;101007.69;5270043;28;20038;-71
2024/01/16 05:30:26;;;;;;;17.95;6.80;;;;;;;-0.47;100.00;101009.28;5268220;28;20028;-71
2024/01/16 05:33:00;;;;;;;18.95;5.85;;;;;;;-0.54;100.00;101005.34;5271872;28;20129;-71
2024/01/16 05:35:31;;;;;;;21.23;6.07;;;;;;;-0.57;100.00;101010.78;5268148;28;20716;-71
2024/01/16 05:38:03;;;;;;;30.00;6.70;;;;;;;-0.58;100.00;101003.81;5271644;28;20027;-71
2024/01/16 05:40:33;;;;;;;16.75;5.80;;;;;;;-0.61;100.00;101004.84;5266434;28;20040;-71
2024/01/16 05:43:03;;;;;;;35.17;8.10;;;;;;;-0.60;100.00;101003.91;5269612;28;20503;-71
2024/01/16 05:45:34;;;;;;;19.42;6.05;;;;;;;-0.58;100.00;100998.53;5267853;28;20115;-71
2024/01/16 05:48:07;;;;;;;23.60;5.68;;;;;;;-0.60;100.00;101003.91;5265081;28;20023;-71
2024/01/16 05:50:37;;;;;;;19.88;6.15;;;;;;;-0.57;100.00;101002.88;5268206;28;20673;-71
2024/01/16 05:53:07;;;;;;;18.75;6.95;;;;;;;-0.56;100.00;100994.88;5270545;28;20020;-71
2024/01/16 05:55:38;;;;;;;21.25;6.18;;;;;;;-0.56;100.00;101001.94;5273047;28;20435;-71
2024/01/16 05:58:08;;;;;;;26.40;5.78;;;;;;;-0.59;100.00;100999.50;5274796;28;20397;-71
2024/01/16 06:00:39;;;;;;;24.58;6.82;;;;;;;-0.57;100.00;100994.97;5272693;28;20035;-71
2024/01/16 06:03:09;;;;;;;19.65;6.63;;;;;;;-0.58;100.00;101001.19;5273823;27;20027;-71
2024/01/16 06:05:40;;;;;;;17.25;5.60;;;;;;;-0.55;100.00;100998.38;5273465;28;20039;-71
2024/01/16 06:08:11;;;;;;;15.60;5.90;;;;;;;-0.60;100.00;101000.44;5271955;28;20032;-71
2024/01/16 06:10:41;;;;;;;23.05;5.53;;;;;;;-0.63;100.00;100990.91;5272738;28;20032;-71
2024/01/16 06:13:11;;;;;;;27.10;6.30;;;;;;;-0.63;100.00;100993.53;5272611;27;20016;-71
2024/01/16 06:15:42;;;;;;;23.15;5.65;;;;;;;-0.67;100.00;100993.81;5271743;28;20036;-71
2024/01/16 06:18:12;;;;;;;32.95;9.60;;;;;;;-0.71;100.00;100994.94;5272855;28;20055;-71
2024/01/16 06:20:43;;;;;;;24.77;6.65;;;;;;;-0.72;100.00;100993.25;5272311;28;20480;-71
2024/01/16 06:23:13;;;;;;;17.42;6.40;;;;;;;-0.72;100.00;100995.88;5272524;28;20027;-71
2024/01/16 06:25:44;;;;;;;22.67;6.38;;;;;;;-0.74;100.00;100989.88;5272970;28;20051;-71
2024/01/16 06:28:14;;;;;;;19.60;6.20;;;;;;;-0.80;100.00;100993.72;5271651;28;20416;-71
2024/01/16 06:30:45;;;;;;;16.90;5.95;;;;;;;-0.88;100.00;101002.03;5272651;28;20070;-71
2024/01/16 06:33:15;;;;;;;17.75;5.47;;;;;;;-0.88;100.00;100998.56;5269084;28;20796;-71
2024/01/16 06:35:46;;;;;;;12.75;5.03;;;;;;;-0.90;100.00;100987.28;5270295;28;20481;-71
2024/01/16 06:38:16;;;;;;;20.00;5.80;;;;;;;-0.89;100.00;100992.44;5269693;28;20393;-70
2024/01/16 06:40:46;;;;;;;28.10;6.47;;;;;;;-0.77;100.00;100996.16;5270598;28;20382;-71
2024/01/16 06:43:18;;;;;;;17.10;6.13;;;;;;;-0.76;100.00;101002.25;5269567;28;20023;-71
2024/01/16 06:45:48;;;;;;;18.75;6.43;;;;;;;-0.72;100.00;100999.34;5272847;28;20060;-71
2024/01/16 06:48:19;;;;;;;22.38;5.72;;;;;;;-0.69;100.00;100996.56;5270086;28;20406;-71
2024/01/16 06:50:49;;;;;;;26.83;6.30;;;;;;;-0.61;100.00;100993.44;5272257;28;20544;-71
2024/01/16 06:53:20;;;;;;;22.85;5.97;;;;;;;-0.59;100.00;101002.13;5270897;28;20024;-70
2024/01/16 06:55:50;;;;;;;16.40;6.43;;;;;;;-0.55;100.00;101009.75;5272572;28;20111;-71
2024/01/16 06:58:21;;;;;;;19.63;6.50;;;;;;;-0.52;100.00;101006.09;5276981;28;20123;-71
2024/01/16 07:00:51;;;;;;;19.60;6.05;;;;;;;-0.47;100.00;101011.09;5272821;28;20039;-70
2024/01/16 07:03:22;;;;;;;21.52;6.53;;;;;;;-0.47;100.00;101013.72;5270701;28;20032;-71
2024/01/16 07:05:52;;;;;;;14.38;6.07;;;;;;;-0.44;100.00;101010.91;5272621;28;20077;-71
2024/01/16 07:08:23;;;;;;;22.05;7.07;;;;;;;-0.47;100.00;101006.66;5271185;28;20032;-71
2024/01/16 07:10:53;;;;;;;23.83;5.95;;;;;;;-0.45;100.00;100999.53;5271713;28;20027;-71
2024/01/16 07:13:24;;;;;;;19.45;8.00;;;;;;;-0.45;100.00;101002.16;5270355;28;20020;-71
2024/01/16 07:15:54;;;;;;;20.27;6.03;;;;;;;-0.47;100.00;101000.53;5271976;28;20563;-71
2024/01/16 07:18:27;;;;;;;11.75;5.38;;;;;;;-0.45;100.00;101003.91;5271089;28;20020;-71
2024/01/16 07:20:57;;;;;;;23.65;6.20;;;;;;;-0.42;100.00;101004.59;5269772;28;20032;-71
2024/01/16 07:23:28;;;;;;;14.77;5.45;;;;;;;-0.31;100.00;101010.06;5270210;28;20355;-71
2024/01/16 07:25:58;;;;;;;19.52;5.43;;;;;;;-0.35;100.00;101011.22;5270666;28;20020;-71
2024/01/16 07:28:29;;;;;;;18.02;5.40;;;;;;;-0.36;100.00;101020.03;5270811;28;20028;-71
2024/01/16 07:30:59;;;;;;;24.30;7.30;;;;;;;-0.35;100.00;101013.84;5272039;28;20488;-71
2024/01/16 07:33:30;;;;;;;20.42;6.60;;;;;;;-0.34;100.00;101015.53;5269930;28;20390;-71
2024/01/16 07:36:01;;;;;;;21.35;6.65;;;;;;;-0.36;100.00;101013.91;5272258;28;20556;-71
2024/01/16 07:38:32;;;;;;;15.57;5.55;;;;;;;-0.37;100.00;101012.22;5270532;28;20028;-71
2024/01/16 07:41:02;;;;;;;20.33;5.25;;;;;;;-0.41;100.00;101011.56;5269313;28;20077;-71
2024/01/16 07:43:34;;;;;;;22.67;6.40;;;;;;;-0.44;100.00;101017.03;5267424;28;20028;-71
2024/01/16 07:46:04;;;;;;;15.35;5.43;;;;;;;-0.42;100.00;101017.78;5271927;28;20024;-71
2024/01/16 07:48:35;;;;;;;19.17;5.40;;;;;;;-0.37;100.00;101007.81;5267507;28;20559;-70
2024/01/16 07:51:05;;;;;;;17.15;4.97;;;;;;;-0.33;100.00;101022.50;5269701;28;20107;-71
2024/01/16 07:53:36;;;;;;;17.48;6.78;;;;;;;-0.28;100.00;101023.06;5266712;28;20085;-71
2024/01/16 07:56:06;;;;;;;20.42;5.78;;;;;;;-0.26;100.00;101029.09;5270036;28;20078;-71
2024/01/16 07:58:37;;;;;;;12.52;5.00;;;;;;;-0.21;100.00;101036.72;5267145;28;20030;-71
2024/01/16 08:01:08;;;;;;;15.95;5.80;;;;;;;-0.18;100.00;101041.81;5266955;28;20043;-71
2024/01/16 08:03:38;;;;;;;22.92;5.60;;;;;;;-0.14;100.00;101034.59;5266752;28;20032;-71
2024/01/16 08:06:09;;;;;;;16.88;5.78;;;;;;;-0.14;100.00;101039.84;5267031;28;20020;-71
2024/01/16 08:08:39;;;;;;;16.83;6.15;;;;;;;-0.23;100.00;101041.25;5267675;28;20038;-70
2024/01/16 08:11:10;;;;;;;21.27;5.50;;;;;;;-0.17;100.00;101040.03;5265329;28;20031;-71
2024/01/16 08:13:40;;;;;;;15.32;4.72;;;;;;;-0.16;100.00;101032.00;5264190;28;20427;-71
2024/01/16 08:16:11;;;;;;;24.92;6.15;;;;;;;-0.09;100.00;101038.63;5267343;28;20032;-71
2024/01/16 08:18:41;;;;;;;14.13;5.80;;;;;;;-0.09;100.00;101045.69;5269218;28;20111;-71
2024/01/16 08:21:12;;;;;;;15.95;5.63;;;;;;;0.03;100.00;101042.31;5269409;28;20370;-71
2024/01/16 08:23:42;;;;;;;19.75;6.07;;;;;;;0.02;100.00;101048.53;5266696;28;20111;-71
2024/01/16 08:26:13;;;;;;;17.20;5.57;;;;;;;0.03;100.00;101062.56;5267682;28;20028;-71
2024/01/16 08:28:43;;;;;;;19.75;6.15;;;;;;;0.13;100.00;101069.81;5269396;28;20031;-71
2024/01/16 08:31:17;;;;;;;18.23;5.30;;;;;;;0.13;100.00;101076.88;5273271;28;20043;-71
2024/01/16 08:33:48;;;;;;;14.88;5.28;;;;;;;0.09;100.00;101075.38;5268167;28;20024;-71
2024/01/16 08:36:18;;;;;;;19.13;5.65;;;;;;;0.13;100.00;101080.38;5265782;28;20505;-71
2024/01/16 08:38:49;;;;;;;16.38;5.07;;;;;;;0.15;100.00;101069.72;5266833;28;20106;-71
2024/01/16 08:41:20;;;;;;;17.05;5.32;;;;;;;0.18;100.00;101064.25;5265297;28;20073;-71
2024/01/16 08:43:51;;;;;;;17.40;5.38;;;;;;;0.15;100.00;101067.94;5266405;28;20051;-71
2024/01/16 08:46:21;;;;;;;17.17;5.68;;;;;;;0.19;100.00;101055.38;5259142;28;20028;-71
2024/01/16 08:48:52;;;;;;;17.10;5.30;;;;;;;0.21;100.00;101062.28;5266805;28;20031;-71
2024/01/16 08:51:23;;;;;;;21.70;5.60;;;;;;;0.22;100.00;101050.78;5267151;28;20020;-71
2024/01/16 08:53:53;;;;;;;14.88;5.88;;;;;;;0.21;100.00;101042.97;5264545;28;20107;-71
2024/01/16 08:56:24;;;;;;;16.38;5.78;;;;;;;0.29;100.00;101045.97;5266839;28;20434;-71
2024/01/16 08:58:54;;;;;;;18.38;6.32;;;;;;;0.33;100.00;101044.00;5266399;28;20039;-71
2024/01/16 09:01:24;;;;;;;24.65;5.57;;;;;;;0.27;100.00;101039.94;5265353;28;20024;-71
2024/01/16 09:03:55;;;;;;;12.07;5.47;;;;;;;0.31;100.00;101038.81;5267901;28;20066;-71
2024/01/16 09:06:25;;;;;;;21.55;8.43;;;;;;;0.34;100.00;101040.41;5265220;28;20031;-71
2024/01/16 09:08:56;;;;;;;52.38;16.80;;;;;;;0.34;100.00;101035.13;5266904;28;20034;-71
2024/01/16 09:11:27;;;;;;;43.03;13.48;;;;;;;0.33;100.00;101034.28;5264057;28;20682;-71
2024/01/16 09:13:57;;;;;;;54.90;16.55;;;;;;;0.35;100.00;101026.25;5264845;28;20110;-71
2024/01/16 09:16:28;;;;;;;36.25;11.40;;;;;;;0.39;100.00;101025.97;5265345;28;20020;-71
2024/01/16 09:18:58;;;;;;;28.25;9.48;;;;;;;0.43;100.00;101024.00;5268204;28;21559;-71
2024/01/16 09:21:29;;;;;;;22.33;8.48;;;;;;;0.49;100.00;101034.16;5267294;28;20031;-71
2024/01/16 09:23:59;;;;;;;21.63;6.40;;;;;;;0.52;100.00;101024.25;5264502;28;20032;-71
2024/01/16 09:26:31;;;;;;;16.73;5.32;;;;;;;0.51;100.00;101006.72;5266766;28;20111;-71
2024/01/16 09:29:01;;;;;;;15.82;5.78;;;;;;;0.55;100.00;101012.63;5264773;28;20535;-71
2024/01/16 09:31:32;;;;;;;12.63;5.75;;;;;;;0.61;100.00;101011.44;5265617;28;20028;-71
2024/01/16 09:34:04;;;;;;;18.60;5.75;;;;;;;0.70;100.00;101003.75;5266286;28;20151;-71
2024/01/16 09:36:36;;;;;;;17.88;6.53;;;;;;;1.05;100.00;101003.22;5266697;28;20105;-71
2024/01/16 09:39:08;;;;;;;18.00;7.65;;;;;;;1.24;100.00;101009.00;5265072;28;20028;-71
2024/01/16 09:41:39;;;;;;;12.63;5.72;;;;;;;1.63;100.00;101009.91;5265653;28;20024;-71
2024/01/16 09:44:10;;;;;;;14.50;5.63;;;;;;;1.96;100.00;101008.53;5264364;28;20035;-71
2024/01/16 09:46:46;;;;;;;19.77;9.35;;;;;;;2.28;100.00;101007.09;5264693;28;20043;-72
2024/01/16 09:49:17;;;;;;;13.73;4.70;;;;;;;2.32;100.00;101005.09;5265342;28;20051;-72
2024/01/16 09:51:48;;;;;;;18.77;5.68;;;;;;;2.32;100.00;101003.28;5268400;28;20629;-72
2024/01/16 09:54:18;;;;;;;10.63;4.95;;;;;;;2.58;100.00;100995.28;5265342;28;20020;-72
2024/01/16 09:56:53;;;;;;;15.57;5.65;;;;;;;2.66;100.00;100997.34;5268255;28;20432;-73
2024/01/16 09:59:24;;;;;;;12.98;6.00;;;;;;;2.69;100.00;100992.69;5258083;28;20065;-73
2024/01/16 10:01:56;;;;;;;9.20;4.75;;;;;;;2.51;100.00;100992.22;5266951;28;20066;-73
2024/01/16 10:04:27;;;;;;;13.70;5.30;;;;;;;2.43;100.00;100993.72;5266499;28;20493;-72
2024/01/16 10:06:59;;;;;;;9.35;5.00;;;;;;;2.45;100.00;100994.44;5268304;28;20092;-72
2024/01/16 10:09:30;;;;;;;13.38;4.57;;;;;;;2.54;100.00;100999.09;5265883;28;20099;-73
2024/01/16 10:12:01;;;;;;;8.77;3.95;;;;;;;2.45;100.00;101000.59;5267023;28;20027;-72
2024/01/16 10:14:33;;;;;;;16.08;4.72;;;;;;;2.46;100.00;100991.72;5265108;28;20032;-73
2024/01/16 10:17:06;;;;;;;14.02;4.75;;;;;;;2.65;100.00;100993.84;5266357;28;20059;-72
2024/01/16 10:19:49;;;;;;;10.43;3.40;;;;;;;2.55;100.00;100995.47;5266849;28;20111;-73
2024/01/16 10:22:21;;;;;;;17.27;4.03;;;;;;;2.63;100.00;100987.84;5263949;28;20028;-72
2024/01/16 10:25:05;;;;;;;12.20;4.10;;;;;;;2.63;100.00;100987.00;5264526;28;20028;-72
2024/01/16 10:27:37;;;;;;;11.55;4.38;;;;;;;2.65;100.00;100972.66;5266402;28;20058;-73
2024/01/16 10:30:08;;;;;;;16.42;4.47;;;;;;;2.82;100.00;100980.22;5266669;28;20077;-73
2024/01/16 10:32:40;;;;;;;13.57;4.72;;;;;;;2.95;100.00;100988.09;5264873;28;20038;-74
2024/01/16 10:35:13;;;;;;;11.25;4.93;;;;;;;2.94;100.00;100980.28;5266045;28;20032;-73
2024/01/16 10:37:46;;;;;;;14.43;5.85;;;;;;;3.04;100.00;100989.25;5267351;28;20038;-72
2024/01/16 10:40:19;;;;;;;9.15;5.18;;;;;;;3.08;100.00;100994.19;5271543;28;20020;-73
2024/01/16 10:43:03;;;;;;;13.43;3.95;;;;;;;3.06;100.00;100989.97;5270029;28;20035;-73
2024/01/16 10:45:34;;;;;;;7.50;3.45;;;;;;;2.97;100.00;100986.22;5265483;28;20040;-73
2024/01/16 10:48:07;;;;;;;10.18;3.70;;;;;;;3.00;100.00;100987.75;5271373;28;20039;-73
2024/01/16 10:50:38;;;;;;;23.80;8.05;;;;;;;3.04;100.00;100981.28;5269809;28;20111;-73
2024/01/16 10:53:09;;;;;;;15.55;6.25;;;;;;;3.13;100.00;100970.00;5270124;28;20023;-73
2024/01/16 10:55:51;;;;;;;8.95;5.03;;;;;;;3.22;100.00;100965.81;5269989;28;20035;-73
2024/01/16 10:58:23;;;;;;;10.00;3.47;;;;;;;3.27;100.00;100955.72;5262737;28;20020;-73
2024/01/16 11:00:56;;;;;;;12.10;4.07;;;;;;;3.28;100.00;100952.09;5270900;28;20110;-74
2024/01/16 11:03:43;;;;;;;13.57;4.72;;;;;;;3.21;100.00;100949.03;5269669;28;20095;-73
2024/01/16 11:06:16;;;;;;;21.70;7.05;;;;;;;3.06;100.00;100948.41;5269052;28;20020;-73
2024/01/16 11:08:47;;;;;;;37.35;11.25;;;;;;;2.96;100.00;100951.84;5270878;28;20396;-73
2024/01/16 11:11:18;;;;;;;20.20;6.68;;;;;;;3.03;100.00;100945.97;5269751;27;20047;-73
2024/01/16 11:13:50;;;;;;;92.15;29.58;;;;;;;3.16;100.00;100951.19;5270798;28;20046;-73
2024/01/16 11:16:21;;;;;;;110.10;33.38;;;;;;;3.12;100.00;100949.75;5269947;28;20024;-73
2024/01/16 11:18:52;;;;;;;147.07;54.22;;;;;;;3.10;100.00;100946.34;5271065;28;20035;-73
2024/01/16 11:21:23;;;;;;;90.10;38.75;;;;;;;3.12;100.00;100947.09;5269173;28;20024;-73
2024/01/16 11:23:54;;;;;;;107.13;60.50;;;;;;;3.18;100.00;100945.78;5271122;28;20048;-72
2024/01/16 11:26:33;;;;;;;26.13;9.60;;;;;;;3.16;100.00;100945.03;5267588;28;20111;-73
2024/01/16 11:29:27;;;;;;;79.07;26.75;;;;;;;3.19;100.00;100937.72;5270591;28;20036;-72
2024/01/16 11:31:58;;;;;;;33.35;11.77;;;;;;;3.26;100.00;100943.38;5270807;28;20548;-73